sensor_id;sensor_type;location;lat;lon;timestamp;temperature;humidity
22558;DHT22;11445;53.816;8.902;2023-08-06T00:00:30;16.10;99.90
22558;DHT22;11445;53.816;8.902;2023-08-06T00:02:56;16.00;99.90
22558;DHT22;11445;53.816;8.902;2023-08-06T00:05:23;16.00;99.90
22558;DHT22;11445;53.816;8.902;2023-08-06T00:07:51;16.00;99.90
22558;DHT22;11445;53.816;8.902;2023-08-06T00:10:18;16.00;99.90
22558;DHT22;11445;53.816;8.902;2023-08-06T00:12:45;16.00;99.90
22558;DHT22;11445;53.816;8.902;2023-08-06T00:15:12;15.90;99.90
22558;DHT22;11445;53.816;8.902;2023-08-06T00:17:39;15.90;99.90
22558;DHT22;11445;53.816;8.902;2023-08-06T00:20:07;15.90;99.90
22558;DHT22;11445;53.816;8.902;2023-08-06T00:22:34;15.90;99.90
22558;DHT22;11445;53.816;8.902;2023-08-06T00:25:04;15.90;99.90
22558;DHT22;11445;53.816;8.902;2023-08-06T00:27:31;15.80;99.90
22558;DHT22;11445;53.816;8.902;2023-08-06T00:29:58;15.80;99.90
22558;DHT22;11445;53.816;8.902;2023-08-06T00:32:25;15.80;99.90
22558;DHT22;11445;53.816;8.902;2023-08-06T00:34:52;15.80;99.90
22558;DHT22;11445;53.816;8.902;2023-08-06T00:37:19;15.80;99.90
22558;DHT22;11445;53.816;8.902;2023-08-06T00:39:46;15.80;99.90
22558;DHT22;11445;53.816;8.902;2023-08-06T00:42:14;15.80;99.90
22558;DHT22;11445;53.816;8.902;2023-08-06T00:44:41;15.80;99.90
22558;DHT22;11445;53.816;8.902;2023-08-06T00:47:08;15.80;99.90
22558;DHT22;11445;53.816;8.902;2023-08-06T00:49:36;15.80;99.90
22558;DHT22;11445;53.816;8.902;2023-08-06T00:52:04;15.80;99.90
22558;DHT22;11445;53.816;8.902;2023-08-06T00:54:31;15.80;99.90
22558;DHT22;11445;53.816;8.902;2023-08-06T00:56:59;15.80;99.90
22558;DHT22;11445;53.816;8.902;2023-08-06T00:59:29;15.80;99.90
22558;DHT22;11445;53.816;8.902;2023-08-06T01:01:56;15.80;99.90
22558;DHT22;11445;53.816;8.902;2023-08-06T01:04:23;15.80;99.90
22558;DHT22;11445;53.816;8.902;2023-08-06T01:06:59;15.90;99.90
22558;DHT22;11445;53.816;8.902;2023-08-06T01:09:35;15.90;99.90
22558;DHT22;11445;53.816;8.902;2023-08-06T01:12:09;15.90;99.90
22558;DHT22;11445;53.816;8.902;2023-08-06T01:14:47;15.80;99.90
22558;DHT22;11445;53.816;8.902;2023-08-06T01:17:14;15.80;99.90
22558;DHT22;11445;53.816;8.902;2023-08-06T01:19:41;15.80;99.90
22558;DHT22;11445;53.816;8.902;2023-08-06T01:22:09;15.80;99.90
22558;DHT22;11445;53.816;8.902;2023-08-06T01:24:36;15.80;99.90
22558;DHT22;11445;53.816;8.902;2023-08-06T01:27:08;15.80;99.90
22558;DHT22;11445;53.816;8.902;2023-08-06T01:29:41;15.80;99.90
22558;DHT22;11445;53.816;8.902;2023-08-06T01:32:09;15.80;99.90
22558;DHT22;11445;53.816;8.902;2023-08-06T01:34:39;15.80;99.90
22558;DHT22;11445;53.816;8.902;2023-08-06T01:37:07;15.80;99.90
22558;DHT22;11445;53.816;8.902;2023-08-06T01:39:35;15.80;99.90
22558;DHT22;11445;53.816;8.902;2023-08-06T01:42:02;15.80;99.90
22558;DHT22;11445;53.816;8.902;2023-08-06T01:44:29;15.80;99.90
22558;DHT22;11445;53.816;8.902;2023-08-06T01:46:56;15.80;99.90
22558;DHT22;11445;53.816;8.902;2023-08-06T01:49:23;15.80;99.90
22558;DHT22;11445;53.816;8.902;2023-08-06T01:51:50;15.80;99.90
22558;DHT22;11445;53.816;8.902;2023-08-06T01:54:17;15.80;99.90
22558;DHT22;11445;53.816;8.902;2023-08-06T01:56:45;15.80;99.90
22558;DHT22;11445;53.816;8.902;2023-08-06T01:59:12;15.80;99.90
22558;DHT22;11445;53.816;8.902;2023-08-06T02:01:38;15.80;99.90
22558;DHT22;11445;53.816;8.902;2023-08-06T02:04:05;15.80;99.90
22558;DHT22;11445;53.816;8.902;2023-08-06T02:06:32;15.80;99.90
22558;DHT22;11445;53.816;8.902;2023-08-06T02:08:59;15.80;99.90
22558;DHT22;11445;53.816;8.902;2023-08-06T02:11:25;15.80;99.90
22558;DHT22;11445;53.816;8.902;2023-08-06T02:13:54;15.80;99.90
22558;DHT22;11445;53.816;8.902;2023-08-06T02:16:21;15.80;99.90
22558;DHT22;11445;53.816;8.902;2023-08-06T02:18:48;15.80;99.90
22558;DHT22;11445;53.816;8.902;2023-08-06T02:21:14;15.80;99.90
22558;DHT22;11445;53.816;8.902;2023-08-06T02:23:41;15.80;99.90
22558;DHT22;11445;53.816;8.902;2023-08-06T02:26:08;15.80;99.90
22558;DHT22;11445;53.816;8.902;2023-08-06T02:28:35;15.80;99.90
22558;DHT22;11445;53.816;8.902;2023-08-06T02:31:03;15.80;99.90
22558;DHT22;11445;53.816;8.902;2023-08-06T02:33:32;15.80;99.90
22558;DHT22;11445;53.816;8.902;2023-08-06T02:35:59;15.80;99.90
22558;DHT22;11445;53.816;8.902;2023-08-06T02:38:27;15.80;99.90
22558;DHT22;11445;53.816;8.902;2023-08-06T02:40:53;15.80;99.90
22558;DHT22;11445;53.816;8.902;2023-08-06T02:43:20;15.80;99.90
22558;DHT22;11445;53.816;8.902;2023-08-06T02:45:47;15.80;99.90
22558;DHT22;11445;53.816;8.902;2023-08-06T02:48:15;15.80;99.90
22558;DHT22;11445;53.816;8.902;2023-08-06T02:50:43;15.80;99.90
22558;DHT22;11445;53.816;8.902;2023-08-06T02:53:10;15.80;99.90
22558;DHT22;11445;53.816;8.902;2023-08-06T02:55:37;15.80;99.90
22558;DHT22;11445;53.816;8.902;2023-08-06T02:58:04;15.80;99.90
22558;DHT22;11445;53.816;8.902;2023-08-06T03:00:31;15.80;99.90
22558;DHT22;11445;53.816;8.902;2023-08-06T03:02:57;15.80;99.90
22558;DHT22;11445;53.816;8.902;2023-08-06T03:05:25;15.80;99.90
22558;DHT22;11445;53.816;8.902;2023-08-06T03:07:52;15.80;99.90
22558;DHT22;11445;53.816;8.902;2023-08-06T03:10:19;15.80;99.90
22558;DHT22;11445;53.816;8.902;2023-08-06T03:12:46;15.80;99.90
22558;DHT22;11445;53.816;8.902;2023-08-06T03:15:13;15.80;99.90
22558;DHT22;11445;53.816;8.902;2023-08-06T03:17:40;15.80;99.90
22558;DHT22;11445;53.816;8.902;2023-08-06T03:20:07;15.80;99.90
22558;DHT22;11445;53.816;8.902;2023-08-06T03:22:35;15.80;99.90
22558;DHT22;11445;53.816;8.902;2023-08-06T03:25:02;15.80;99.90
22558;DHT22;11445;53.816;8.902;2023-08-06T03:27:29;15.80;99.90
22558;DHT22;11445;53.816;8.902;2023-08-06T03:29:56;15.80;99.90
22558;DHT22;11445;53.816;8.902;2023-08-06T03:32:23;15.80;99.90
22558;DHT22;11445;53.816;8.902;2023-08-06T03:34:50;15.70;99.90
22558;DHT22;11445;53.816;8.902;2023-08-06T03:37:17;15.80;99.90
22558;DHT22;11445;53.816;8.902;2023-08-06T03:39:45;15.80;99.90
22558;DHT22;11445;53.816;8.902;2023-08-06T03:42:11;15.80;99.90
22558;DHT22;11445;53.816;8.902;2023-08-06T03:44:38;15.80;99.90
22558;DHT22;11445;53.816;8.902;2023-08-06T03:47:06;15.80;99.90
22558;DHT22;11445;53.816;8.902;2023-08-06T03:49:32;15.70;99.90
22558;DHT22;11445;53.816;8.902;2023-08-06T03:51:59;15.70;99.90
22558;DHT22;11445;53.816;8.902;2023-08-06T03:54:26;15.70;99.90
22558;DHT22;11445;53.816;8.902;2023-08-06T03:56:54;15.70;99.90
22558;DHT22;11445;53.816;8.902;2023-08-06T03:59:21;15.70;99.90
22558;DHT22;11445;53.816;8.902;2023-08-06T04:01:48;15.70;99.90
22558;DHT22;11445;53.816;8.902;2023-08-06T04:04:15;15.70;99.90
22558;DHT22;11445;53.816;8.902;2023-08-06T04:06:42;15.70;99.90
22558;DHT22;11445;53.816;8.902;2023-08-06T04:09:08;15.70;99.90
22558;DHT22;11445;53.816;8.902;2023-08-06T04:11:35;15.70;99.90
22558;DHT22;11445;53.816;8.902;2023-08-06T04:14:03;15.70;99.90
22558;DHT22;11445;53.816;8.902;2023-08-06T04:16:30;15.70;99.90
22558;DHT22;11445;53.816;8.902;2023-08-06T04:18:57;15.70;99.90
22558;DHT22;11445;53.816;8.902;2023-08-06T04:21:24;15.80;99.90
22558;DHT22;11445;53.816;8.902;2023-08-06T04:23:51;15.80;99.90
22558;DHT22;11445;53.816;8.902;2023-08-06T04:26:17;15.80;99.90
22558;DHT22;11445;53.816;8.902;2023-08-06T04:28:44;15.80;99.90
22558;DHT22;11445;53.816;8.902;2023-08-06T04:31:12;15.80;99.90
22558;DHT22;11445;53.816;8.902;2023-08-06T04:33:39;15.80;99.90
22558;DHT22;11445;53.816;8.902;2023-08-06T04:36:06;15.80;99.90
22558;DHT22;11445;53.816;8.902;2023-08-06T04:38:33;15.80;99.90
22558;DHT22;11445;53.816;8.902;2023-08-06T04:41:02;15.90;99.90
22558;DHT22;11445;53.816;8.902;2023-08-06T04:43:29;15.90;99.90
22558;DHT22;11445;53.816;8.902;2023-08-06T04:45:55;15.90;99.90
22558;DHT22;11445;53.816;8.902;2023-08-06T04:48:24;15.90;99.90
22558;DHT22;11445;53.816;8.902;2023-08-06T04:50:50;15.90;99.90
22558;DHT22;11445;53.816;8.902;2023-08-06T04:53:17;15.90;99.90
22558;DHT22;11445;53.816;8.902;2023-08-06T04:55:44;16.00;99.90
22558;DHT22;11445;53.816;8.902;2023-08-06T04:58:12;16.00;99.90
22558;DHT22;11445;53.816;8.902;2023-08-06T05:00:39;16.10;99.90
22558;DHT22;11445;53.816;8.902;2023-08-06T05:03:06;16.30;99.90
22558;DHT22;11445;53.816;8.902;2023-08-06T05:05:34;16.40;99.90
22558;DHT22;11445;53.816;8.902;2023-08-06T05:08:01;16.50;99.90
22558;DHT22;11445;53.816;8.902;2023-08-06T05:10:28;16.70;99.90
22558;DHT22;11445;53.816;8.902;2023-08-06T05:12:55;16.80;99.90
22558;DHT22;11445;53.816;8.902;2023-08-06T05:15:22;16.80;99.90
22558;DHT22;11445;53.816;8.902;2023-08-06T05:17:50;16.80;99.90
22558;DHT22;11445;53.816;8.902;2023-08-06T05:20:17;16.80;99.90
22558;DHT22;11445;53.816;8.902;2023-08-06T05:22:45;16.80;99.90
22558;DHT22;11445;53.816;8.902;2023-08-06T05:25:13;16.80;99.90
22558;DHT22;11445;53.816;8.902;2023-08-06T05:27:40;16.70;99.90
22558;DHT22;11445;53.816;8.902;2023-08-06T05:30:10;16.70;99.90
22558;DHT22;11445;53.816;8.902;2023-08-06T05:32:37;16.80;99.90
22558;DHT22;11445;53.816;8.902;2023-08-06T05:35:05;16.80;99.90
22558;DHT22;11445;53.816;8.902;2023-08-06T05:37:32;16.80;99.90
22558;DHT22;11445;53.816;8.902;2023-08-06T05:40:00;16.80;99.90
22558;DHT22;11445;53.816;8.902;2023-08-06T05:42:27;16.90;99.90
22558;DHT22;11445;53.816;8.902;2023-08-06T05:44:54;17.00;99.90
22558;DHT22;11445;53.816;8.902;2023-08-06T05:47:21;17.00;99.90
22558;DHT22;11445;53.816;8.902;2023-08-06T05:49:48;17.20;99.90
22558;DHT22;11445;53.816;8.902;2023-08-06T05:52:14;17.20;99.90
22558;DHT22;11445;53.816;8.902;2023-08-06T05:54:41;17.20;99.90
22558;DHT22;11445;53.816;8.902;2023-08-06T05:57:09;17.10;99.90
22558;DHT22;11445;53.816;8.902;2023-08-06T05:59:36;17.20;99.90
22558;DHT22;11445;53.816;8.902;2023-08-06T06:02:03;17.40;99.90
22558;DHT22;11445;53.816;8.902;2023-08-06T06:04:30;17.40;99.90
22558;DHT22;11445;53.816;8.902;2023-08-06T06:06:57;17.40;99.90
22558;DHT22;11445;53.816;8.902;2023-08-06T06:09:24;17.50;99.90
22558;DHT22;11445;53.816;8.902;2023-08-06T06:11:51;17.60;99.90
22558;DHT22;11445;53.816;8.902;2023-08-06T06:14:19;17.70;99.90
22558;DHT22;11445;53.816;8.902;2023-08-06T06:16:46;17.80;99.90
22558;DHT22;11445;53.816;8.902;2023-08-06T06:19:13;17.80;99.90
22558;DHT22;11445;53.816;8.902;2023-08-06T06:21:40;17.90;99.90
22558;DHT22;11445;53.816;8.902;2023-08-06T06:24:07;18.00;99.90
22558;DHT22;11445;53.816;8.902;2023-08-06T06:26:33;18.20;99.90
22558;DHT22;11445;53.816;8.902;2023-08-06T06:29:00;18.30;99.90
22558;DHT22;11445;53.816;8.902;2023-08-06T06:31:29;18.40;99.90
22558;DHT22;11445;53.816;8.902;2023-08-06T06:33:55;18.50;99.90
22558;DHT22;11445;53.816;8.902;2023-08-06T06:36:23;18.50;99.90
22558;DHT22;11445;53.816;8.902;2023-08-06T06:38:49;18.60;99.90
22558;DHT22;11445;53.816;8.902;2023-08-06T06:41:16;18.50;99.90
22558;DHT22;11445;53.816;8.902;2023-08-06T06:43:43;18.30;99.90
22558;DHT22;11445;53.816;8.902;2023-08-06T06:46:10;18.20;99.90
22558;DHT22;11445;53.816;8.902;2023-08-06T06:48:38;18.00;99.90
22558;DHT22;11445;53.816;8.902;2023-08-06T06:51:05;17.80;99.90
22558;DHT22;11445;53.816;8.902;2023-08-06T06:53:31;17.70;99.90
22558;DHT22;11445;53.816;8.902;2023-08-06T06:56:02;17.60;99.90
22558;DHT22;11445;53.816;8.902;2023-08-06T06:58:29;17.60;99.90
22558;DHT22;11445;53.816;8.902;2023-08-06T07:00:56;17.50;99.90
22558;DHT22;11445;53.816;8.902;2023-08-06T07:03:23;17.50;99.90
22558;DHT22;11445;53.816;8.902;2023-08-06T07:05:51;17.40;99.90
22558;DHT22;11445;53.816;8.902;2023-08-06T07:08:18;17.40;99.90
22558;DHT22;11445;53.816;8.902;2023-08-06T07:10:45;17.40;99.90
22558;DHT22;11445;53.816;8.902;2023-08-06T07:13:12;17.40;99.90
22558;DHT22;11445;53.816;8.902;2023-08-06T07:15:39;17.30;99.90
22558;DHT22;11445;53.816;8.902;2023-08-06T07:18:05;17.30;99.90
22558;DHT22;11445;53.816;8.902;2023-08-06T07:20:32;17.30;99.90
22558;DHT22;11445;53.816;8.902;2023-08-06T07:23:01;17.30;99.90
22558;DHT22;11445;53.816;8.902;2023-08-06T07:25:28;17.30;99.90
22558;DHT22;11445;53.816;8.902;2023-08-06T07:27:55;17.30;99.90
22558;DHT22;11445;53.816;8.902;2023-08-06T07:30:23;17.40;99.90
22558;DHT22;11445;53.816;8.902;2023-08-06T07:32:49;17.40;99.90
22558;DHT22;11445;53.816;8.902;2023-08-06T07:35:16;17.40;99.90
22558;DHT22;11445;53.816;8.902;2023-08-06T07:37:43;17.40;99.90
22558;DHT22;11445;53.816;8.902;2023-08-06T07:40:12;17.50;99.90
22558;DHT22;11445;53.816;8.902;2023-08-06T07:42:41;17.40;99.90
22558;DHT22;11445;53.816;8.902;2023-08-06T07:45:09;17.50;99.90
22558;DHT22;11445;53.816;8.902;2023-08-06T07:47:36;17.50;99.90
22558;DHT22;11445;53.816;8.902;2023-08-06T07:50:03;17.50;99.90
22558;DHT22;11445;53.816;8.902;2023-08-06T07:52:30;17.60;99.90
22558;DHT22;11445;53.816;8.902;2023-08-06T07:54:57;17.60;99.90
22558;DHT22;11445;53.816;8.902;2023-08-06T07:57:25;17.70;99.90
22558;DHT22;11445;53.816;8.902;2023-08-06T07:59:52;17.70;99.90
22558;DHT22;11445;53.816;8.902;2023-08-06T08:02:19;17.70;99.90
22558;DHT22;11445;53.816;8.902;2023-08-06T08:04:46;17.70;99.90
22558;DHT22;11445;53.816;8.902;2023-08-06T08:07:14;17.80;99.90
22558;DHT22;11445;53.816;8.902;2023-08-06T08:09:40;17.80;99.90
22558;DHT22;11445;53.816;8.902;2023-08-06T08:12:07;17.80;99.90
22558;DHT22;11445;53.816;8.902;2023-08-06T08:14:36;17.80;99.90
22558;DHT22;11445;53.816;8.902;2023-08-06T08:17:03;17.90;99.90
22558;DHT22;11445;53.816;8.902;2023-08-06T08:19:31;18.00;99.90
22558;DHT22;11445;53.816;8.902;2023-08-06T08:21:58;18.00;99.90
22558;DHT22;11445;53.816;8.902;2023-08-06T08:24:26;18.00;99.90
22558;DHT22;11445;53.816;8.902;2023-08-06T08:26:53;18.00;99.90
22558;DHT22;11445;53.816;8.902;2023-08-06T08:29:20;18.00;99.90
22558;DHT22;11445;53.816;8.902;2023-08-06T08:31:48;18.00;99.90
22558;DHT22;11445;53.816;8.902;2023-08-06T08:34:15;18.10;99.90
22558;DHT22;11445;53.816;8.902;2023-08-06T08:36:42;18.10;99.90
22558;DHT22;11445;53.816;8.902;2023-08-06T08:39:12;18.10;99.90
22558;DHT22;11445;53.816;8.902;2023-08-06T08:41:39;18.00;99.90
22558;DHT22;11445;53.816;8.902;2023-08-06T08:44:09;17.90;99.90
22558;DHT22;11445;53.816;8.902;2023-08-06T08:46:36;18.00;99.90
22558;DHT22;11445;53.816;8.902;2023-08-06T08:49:05;18.00;99.90
22558;DHT22;11445;53.816;8.902;2023-08-06T08:51:33;18.00;99.90
22558;DHT22;11445;53.816;8.902;2023-08-06T08:54:02;18.10;99.90
22558;DHT22;11445;53.816;8.902;2023-08-06T08:56:30;18.10;99.90
22558;DHT22;11445;53.816;8.902;2023-08-06T08:58:58;18.10;99.90
22558;DHT22;11445;53.816;8.902;2023-08-06T09:01:25;18.00;99.90
22558;DHT22;11445;53.816;8.902;2023-08-06T09:03:54;18.10;99.90
22558;DHT22;11445;53.816;8.902;2023-08-06T09:06:23;18.00;99.90
22558;DHT22;11445;53.816;8.902;2023-08-06T09:09:00;18.00;99.90
22558;DHT22;11445;53.816;8.902;2023-08-06T09:11:29;18.00;99.90
22558;DHT22;11445;53.816;8.902;2023-08-06T09:14:04;18.10;99.90
22558;DHT22;11445;53.816;8.902;2023-08-06T09:16:33;18.10;99.90
22558;DHT22;11445;53.816;8.902;2023-08-06T09:19:07;18.10;99.90
22558;DHT22;11445;53.816;8.902;2023-08-06T09:21:36;18.20;99.90
22558;DHT22;11445;53.816;8.902;2023-08-06T09:24:07;18.30;99.90
22558;DHT22;11445;53.816;8.902;2023-08-06T09:26:34;18.40;99.90
22558;DHT22;11445;53.816;8.902;2023-08-06T09:29:05;18.40;99.90
22558;DHT22;11445;53.816;8.902;2023-08-06T09:31:40;18.50;99.90
22558;DHT22;11445;53.816;8.902;2023-08-06T09:34:11;18.50;99.90
22558;DHT22;11445;53.816;8.902;2023-08-06T09:36:41;18.60;99.90
22558;DHT22;11445;53.816;8.902;2023-08-06T09:39:13;18.60;99.90
22558;DHT22;11445;53.816;8.902;2023-08-06T09:41:40;18.70;99.90
22558;DHT22;11445;53.816;8.902;2023-08-06T09:44:15;18.90;99.90
22558;DHT22;11445;53.816;8.902;2023-08-06T09:46:43;19.00;99.90
22558;DHT22;11445;53.816;8.902;2023-08-06T09:49:13;19.00;99.90
22558;DHT22;11445;53.816;8.902;2023-08-06T09:51:41;19.10;99.90
22558;DHT22;11445;53.816;8.902;2023-08-06T09:54:12;19.20;99.90
22558;DHT22;11445;53.816;8.902;2023-08-06T09:56:39;19.20;99.90
22558;DHT22;11445;53.816;8.902;2023-08-06T09:59:07;19.20;99.90
22558;DHT22;11445;53.816;8.902;2023-08-06T10:01:35;19.30;99.90
22558;DHT22;11445;53.816;8.902;2023-08-06T10:04:03;19.40;99.90
22558;DHT22;11445;53.816;8.902;2023-08-06T10:06:33;19.50;99.90
22558;DHT22;11445;53.816;8.902;2023-08-06T10:09:02;19.60;99.90
22558;DHT22;11445;53.816;8.902;2023-08-06T10:11:29;19.80;99.90
22558;DHT22;11445;53.816;8.902;2023-08-06T10:14:02;19.90;99.90
22558;DHT22;11445;53.816;8.902;2023-08-06T10:16:30;20.00;99.90
22558;DHT22;11445;53.816;8.902;2023-08-06T10:18:58;20.10;99.90
22558;DHT22;11445;53.816;8.902;2023-08-06T10:21:25;20.10;99.90
22558;DHT22;11445;53.816;8.902;2023-08-06T10:23:54;20.10;99.90
22558;DHT22;11445;53.816;8.902;2023-08-06T10:26:25;20.20;99.90
22558;DHT22;11445;53.816;8.902;2023-08-06T10:28:52;20.20;99.90
22558;DHT22;11445;53.816;8.902;2023-08-06T10:31:19;20.20;99.90
22558;DHT22;11445;53.816;8.902;2023-08-06T10:33:47;20.10;99.90
22558;DHT22;11445;53.816;8.902;2023-08-06T10:36:14;20.00;99.90
22558;DHT22;11445;53.816;8.902;2023-08-06T10:39:00;20.00;99.90
22558;DHT22;11445;53.816;8.902;2023-08-06T10:41:29;20.00;99.90
22558;DHT22;11445;53.816;8.902;2023-08-06T10:44:05;20.10;99.90
22558;DHT22;11445;53.816;8.902;2023-08-06T10:46:33;20.10;99.90
22558;DHT22;11445;53.816;8.902;2023-08-06T10:49:01;20.10;99.90
22558;DHT22;11445;53.816;8.902;2023-08-06T10:51:27;20.10;99.90
22558;DHT22;11445;53.816;8.902;2023-08-06T10:53:54;20.00;99.90
22558;DHT22;11445;53.816;8.902;2023-08-06T10:56:24;20.10;99.90
22558;DHT22;11445;53.816;8.902;2023-08-06T10:58:54;20.10;99.90
22558;DHT22;11445;53.816;8.902;2023-08-06T11:01:22;20.10;99.90
22558;DHT22;11445;53.816;8.902;2023-08-06T11:03:50;20.00;99.90
22558;DHT22;11445;53.816;8.902;2023-08-06T11:06:19;20.00;99.90
22558;DHT22;11445;53.816;8.902;2023-08-06T11:08:48;20.10;99.90
22558;DHT22;11445;53.816;8.902;2023-08-06T11:11:16;20.10;99.90
22558;DHT22;11445;53.816;8.902;2023-08-06T11:13:43;20.10;99.90
22558;DHT22;11445;53.816;8.902;2023-08-06T11:16:13;20.10;99.90
22558;DHT22;11445;53.816;8.902;2023-08-06T11:18:40;20.20;99.90
22558;DHT22;11445;53.816;8.902;2023-08-06T11:21:08;20.20;99.90
22558;DHT22;11445;53.816;8.902;2023-08-06T11:23:35;20.30;99.90
22558;DHT22;11445;53.816;8.902;2023-08-06T11:26:02;20.30;99.90
22558;DHT22;11445;53.816;8.902;2023-08-06T11:28:29;20.30;99.90
22558;DHT22;11445;53.816;8.902;2023-08-06T11:30:56;20.40;99.90
22558;DHT22;11445;53.816;8.902;2023-08-06T11:33:28;20.40;99.90
22558;DHT22;11445;53.816;8.902;2023-08-06T11:35:57;20.50;99.90
22558;DHT22;11445;53.816;8.902;2023-08-06T11:38:25;20.60;99.90
22558;DHT22;11445;53.816;8.902;2023-08-06T11:40:52;20.60;99.90
22558;DHT22;11445;53.816;8.902;2023-08-06T11:43:20;20.70;99.90
22558;DHT22;11445;53.816;8.902;2023-08-06T11:45:48;20.80;99.90
22558;DHT22;11445;53.816;8.902;2023-08-06T11:48:15;20.90;99.90
22558;DHT22;11445;53.816;8.902;2023-08-06T11:50:43;20.90;99.90
22558;DHT22;11445;53.816;8.902;2023-08-06T11:53:12;20.90;99.90
22558;DHT22;11445;53.816;8.902;2023-08-06T11:55:39;21.00;99.90
22558;DHT22;11445;53.816;8.902;2023-08-06T11:58:06;21.00;99.90
22558;DHT22;11445;53.816;8.902;2023-08-06T12:00:34;21.00;99.90
22558;DHT22;11445;53.816;8.902;2023-08-06T12:03:00;21.00;99.90
22558;DHT22;11445;53.816;8.902;2023-08-06T12:05:31;20.90;99.90
22558;DHT22;11445;53.816;8.902;2023-08-06T12:08:01;21.00;99.90
22558;DHT22;11445;53.816;8.902;2023-08-06T12:10:30;20.90;99.90
22558;DHT22;11445;53.816;8.902;2023-08-06T12:12:57;20.90;99.90
22558;DHT22;11445;53.816;8.902;2023-08-06T12:15:24;20.90;99.90
22558;DHT22;11445;53.816;8.902;2023-08-06T12:17:51;20.90;99.90
22558;DHT22;11445;53.816;8.902;2023-08-06T12:20:18;20.90;99.90
22558;DHT22;11445;53.816;8.902;2023-08-06T12:22:45;21.10;99.90
22558;DHT22;11445;53.816;8.902;2023-08-06T12:25:13;21.10;99.90
22558;DHT22;11445;53.816;8.902;2023-08-06T12:27:41;21.10;99.90
22558;DHT22;11445;53.816;8.902;2023-08-06T12:30:09;21.20;99.90
22558;DHT22;11445;53.816;8.902;2023-08-06T12:32:36;21.30;99.90
22558;DHT22;11445;53.816;8.902;2023-08-06T12:35:04;21.30;99.90
22558;DHT22;11445;53.816;8.902;2023-08-06T12:37:32;21.30;99.90
22558;DHT22;11445;53.816;8.902;2023-08-06T12:39:59;21.50;99.90
22558;DHT22;11445;53.816;8.902;2023-08-06T12:42:27;21.50;99.90
22558;DHT22;11445;53.816;8.902;2023-08-06T12:44:54;21.70;99.90
22558;DHT22;11445;53.816;8.902;2023-08-06T12:47:21;21.90;99.90
22558;DHT22;11445;53.816;8.902;2023-08-06T12:49:47;22.10;99.90
22558;DHT22;11445;53.816;8.902;2023-08-06T12:52:15;22.20;99.90
22558;DHT22;11445;53.816;8.902;2023-08-06T12:54:42;22.10;99.90
22558;DHT22;11445;53.816;8.902;2023-08-06T12:57:11;22.00;99.90
22558;DHT22;11445;53.816;8.902;2023-08-06T12:59:39;21.80;99.90
22558;DHT22;11445;53.816;8.902;2023-08-06T13:02:06;21.60;99.90
22558;DHT22;11445;53.816;8.902;2023-08-06T13:04:33;21.40;99.90
22558;DHT22;11445;53.816;8.902;2023-08-06T13:07:00;21.10;99.90
22558;DHT22;11445;53.816;8.902;2023-08-06T13:09:26;20.80;99.90
22558;DHT22;11445;53.816;8.902;2023-08-06T13:11:53;20.60;99.90
22558;DHT22;11445;53.816;8.902;2023-08-06T13:14:20;20.40;99.90
22558;DHT22;11445;53.816;8.902;2023-08-06T13:16:48;20.20;99.90
22558;DHT22;11445;53.816;8.902;2023-08-06T13:19:15;20.00;99.90
22558;DHT22;11445;53.816;8.902;2023-08-06T13:22:02;19.90;99.90
22558;DHT22;11445;53.816;8.902;2023-08-06T13:24:30;19.80;99.90
22558;DHT22;11445;53.816;8.902;2023-08-06T13:26:57;19.60;99.90
22558;DHT22;11445;53.816;8.902;2023-08-06T13:29:25;19.50;99.90
22558;DHT22;11445;53.816;8.902;2023-08-06T13:31:53;19.40;99.90
22558;DHT22;11445;53.816;8.902;2023-08-06T13:34:20;19.30;99.90
22558;DHT22;11445;53.816;8.902;2023-08-06T13:36:47;19.20;99.90
22558;DHT22;11445;53.816;8.902;2023-08-06T13:39:15;19.20;99.90
22558;DHT22;11445;53.816;8.902;2023-08-06T13:41:43;19.10;99.90
22558;DHT22;11445;53.816;8.902;2023-08-06T13:44:09;19.10;99.90
22558;DHT22;11445;53.816;8.902;2023-08-06T13:46:39;19.10;99.90
22558;DHT22;11445;53.816;8.902;2023-08-06T13:49:07;19.10;99.90
22558;DHT22;11445;53.816;8.902;2023-08-06T13:51:34;19.10;99.90
22558;DHT22;11445;53.816;8.902;2023-08-06T13:54:01;19.20;99.90
22558;DHT22;11445;53.816;8.902;2023-08-06T13:56:28;19.20;99.90
22558;DHT22;11445;53.816;8.902;2023-08-06T13:58:55;19.20;99.90
22558;DHT22;11445;53.816;8.902;2023-08-06T14:01:22;19.20;99.90
22558;DHT22;11445;53.816;8.902;2023-08-06T14:03:48;19.20;99.90
22558;DHT22;11445;53.816;8.902;2023-08-06T14:06:17;19.10;99.90
22558;DHT22;11445;53.816;8.902;2023-08-06T14:08:43;19.00;99.90
22558;DHT22;11445;53.816;8.902;2023-08-06T14:11:10;18.80;99.90
22558;DHT22;11445;53.816;8.902;2023-08-06T14:13:38;18.70;99.90
22558;DHT22;11445;53.816;8.902;2023-08-06T14:16:05;18.50;99.90
22558;DHT22;11445;53.816;8.902;2023-08-06T14:18:33;18.40;99.90
22558;DHT22;11445;53.816;8.902;2023-08-06T14:21:03;18.30;99.90
22558;DHT22;11445;53.816;8.902;2023-08-06T14:23:31;18.30;99.90
22558;DHT22;11445;53.816;8.902;2023-08-06T14:25:58;18.20;99.90
22558;DHT22;11445;53.816;8.902;2023-08-06T14:28:25;18.10;99.90
22558;DHT22;11445;53.816;8.902;2023-08-06T14:30:51;18.10;99.90
22558;DHT22;11445;53.816;8.902;2023-08-06T14:33:18;18.10;99.90
22558;DHT22;11445;53.816;8.902;2023-08-06T14:35:45;18.00;99.90
22558;DHT22;11445;53.816;8.902;2023-08-06T14:38:12;18.00;99.90
22558;DHT22;11445;53.816;8.902;2023-08-06T14:40:40;18.00;99.90
22558;DHT22;11445;53.816;8.902;2023-08-06T14:43:06;18.00;99.90
22558;DHT22;11445;53.816;8.902;2023-08-06T14:45:35;18.10;99.90
22558;DHT22;11445;53.816;8.902;2023-08-06T14:48:03;18.10;99.90
22558;DHT22;11445;53.816;8.902;2023-08-06T14:50:30;18.20;99.90
22558;DHT22;11445;53.816;8.902;2023-08-06T14:52:57;18.20;99.90
22558;DHT22;11445;53.816;8.902;2023-08-06T14:55:26;18.20;99.90
22558;DHT22;11445;53.816;8.902;2023-08-06T14:57:54;18.20;99.90
22558;DHT22;11445;53.816;8.902;2023-08-06T15:00:21;18.20;99.90
22558;DHT22;11445;53.816;8.902;2023-08-06T15:02:48;18.20;99.90
22558;DHT22;11445;53.816;8.902;2023-08-06T15:05:15;18.20;99.90
22558;DHT22;11445;53.816;8.902;2023-08-06T15:07:42;18.20;99.90
22558;DHT22;11445;53.816;8.902;2023-08-06T15:10:09;18.30;99.90
22558;DHT22;11445;53.816;8.902;2023-08-06T15:12:36;18.30;99.90
22558;DHT22;11445;53.816;8.902;2023-08-06T15:15:07;18.30;99.90
22558;DHT22;11445;53.816;8.902;2023-08-06T15:17:34;18.30;99.90
22558;DHT22;11445;53.816;8.902;2023-08-06T15:20:01;18.30;99.90
22558;DHT22;11445;53.816;8.902;2023-08-06T15:22:28;18.30;99.90
22558;DHT22;11445;53.816;8.902;2023-08-06T15:24:57;18.30;99.90
22558;DHT22;11445;53.816;8.902;2023-08-06T15:27:23;18.40;99.90
22558;DHT22;11445;53.816;8.902;2023-08-06T15:29:50;18.40;99.90
22558;DHT22;11445;53.816;8.902;2023-08-06T15:32:18;18.50;99.90